Pisa International Airport

LIRP · 托斯卡纳, 意大利

罗盘
风向 的 风向 的 风向 到 风向 310° Pisa International Airport 4R/22L
风: 5 kt, 2 beaufort


5 kt
改变
0 ft 1.000 2.000 3.000 4.000 5.000
Cloud Cloud
FEW 4.000
METAR LIRP 281145Z 31005KT 270V340 9999 FEW040 15/12 Q1012 NOSIG

METAR Pisa International Airport - LIRP/PSA

Pisa International Airport是,意大利中的大型机场。 该机场位于纬度43,68390和经度10,39270。 该机场有2条跑道: 4R/22L 和 4L/22R. 本场的ICAO机场代码为LIRP。 该机场的IATA代码为PSA。 机场在Milano FIR中。

该航空气象观测是针对Pisa International Airport在2024年2月28日 12:45, 当地时间进行的。

机场观察

风向为310°,速度为5 kt。 风向在270°和340°之间变化。

可见度为10 km 或者更多。

有几云在4.000 ft的高度。 没有观察到天花板。

温度和风寒是15 °C。 露点为12 °C,相对湿度为82%。 海平面上的气压为1012 hPa (QNH)。

白天

今天,太阳从06:57升起,在18:04降落。 这适用于Pisa International Airport,世界夏令时可能有所不同。 当地时间与世界标准时间之间的时差为+1 小时。 当前,没有夏令时有效。

公司介绍

我们没有关于这个机场的公司信息。

体会

到Vliegles.nl去找飞行课程,跳伞和其他飞行体验。 浏览页面,了解Pisa International Airport附近所有可用的活动。 你也可以使用搜索功能来寻找你所在地附近的特定飞行课程、跳伞或其他飞行体验。

跑道

Id 标题 侧风 逆风 侧风 %
4R/22L 035°-215° 5 kt 100 %
4L/22R 035°-215° 5 kt 100 %

逆风成分最大的方向会被突出显示,并用于横风计算。 这并不一定意味着这个方向在使用。

乌云

4.000 ft FEW 几云

温度 & 天气

温度 15 °C
露点 12 °C
相对湿度 82%
Kp-index 0 (0-9)

白天

日出
06:57
中午
12:31
日落
18:04 (4:54)

小工具

你想在你的网站上有一个关于Pisa International Airport的当前航空天气(METAR)的小部件吗?

显示HTML代码
?>